Time;durP1;ratioP1;P1;durP2;ratioP2;P2;SDS_P1;SDS_P2;PMS_P1;PMS_P2;Temp;Humidity;BMP_temperature;BMP_pressure;BME280_temperature;BME280_humidity;BME280_pressure;Samples;Min_cycle;Max_cycle;Signal;HPM_P1;HPM_P2
2021/01/11 00:02:03;;;;;;;30.37;19.70;;;;;;;1.23;90.22;100513.72;1786409;80;25119;-68
2021/01/11 00:04:30;;;;;;;30.43;19.40;;;;;;;1.16;90.26;100511.72;1786716;79;25269;-69
2021/01/11 00:06:58;;;;;;;28.63;19.10;;;;;;;1.10;90.28;100507.97;1786719;80;25083;-69
2021/01/11 00:09:24;;;;;;;27.90;18.53;;;;;;;1.02;90.27;100511.19;1786836;79;25289;-68
2021/01/11 00:11:51;;;;;;;27.73;19.40;;;;;;;0.98;90.29;100516.05;1786694;79;25541;-69
2021/01/11 00:14:18;;;;;;;30.80;19.93;;;;;;;0.91;90.28;100516.19;1786973;79;25127;-68
2021/01/11 00:16:45;;;;;;;27.57;18.43;;;;;;;0.85;90.28;100512.89;1786880;79;25241;-69
2021/01/11 00:19:12;;;;;;;30.20;19.90;;;;;;;0.78;90.35;100509.59;1786894;79;25142;-69
2021/01/11 00:21:39;;;;;;;31.23;19.30;;;;;;;0.77;90.45;100516.09;1786791;79;25222;-68
2021/01/11 00:24:06;;;;;;;33.77;20.63;;;;;;;0.74;90.34;100504.93;1786821;79;25289;-69
2021/01/11 00:26:33;;;;;;;38.20;23.13;;;;;;;0.62;90.13;100505.64;1786859;79;25071;-68
2021/01/11 00:28:59;;;;;;;30.83;21.10;;;;;;;0.47;90.07;100501.23;1786864;79;25063;-68
2021/01/11 00:31:26;;;;;;;29.87;20.10;;;;;;;0.38;90.35;100504.45;1786738;79;25621;-68
2021/01/11 00:33:53;;;;;;;35.20;22.63;;;;;;;0.32;90.43;100509.33;1786777;79;25147;-68
2021/01/11 00:36:20;;;;;;;33.33;22.40;;;;;;;0.31;90.58;100512.34;1786725;79;25190;-68
2021/01/11 00:38:46;;;;;;;33.67;22.57;;;;;;;0.29;90.65;100508.94;1786714;79;25589;-68
2021/01/11 00:41:21;;;;;;;35.27;23.60;;;;;;;0.29;90.64;100506.35;1762764;80;25735;-68
2021/01/11 00:43:49;;;;;;;35.97;21.73;;;;;;;0.23;90.61;100512.94;1792785;80;25210;-69
2021/01/11 00:46:23;;;;;;;34.57;21.20;;;;;;;0.17;90.70;100503.58;1792609;78;25576;-69
2021/01/11 00:48:50;;;;;;;37.90;21.83;;;;;;;0.10;90.68;100503.72;1792672;80;25727;-68
2021/01/11 00:51:17;;;;;;;35.10;21.90;;;;;;;0.07;90.98;100503.37;1792577;78;25182;-69
2021/01/11 00:53:44;;;;;;;41.27;20.77;;;;;;;0.11;91.17;100502.86;1792584;78;25757;-68
2021/01/11 00:56:18;;;;;;;38.83;21.00;;;;;;;0.14;91.14;100509.27;1792634;78;25304;-69
2021/01/11 00:58:45;;;;;;;44.33;19.37;;;;;;;0.12;91.15;100505.87;1792676;80;25341;-69
2021/01/11 01:01:14;;;;;;;35.87;18.80;;;;;;;0.13;91.25;100508.84;1763754;80;25177;-69
2021/01/11 01:03:41;;;;;;;39.00;20.30;;;;;;;0.15;91.37;100514.83;1792576;78;25134;-68
2021/01/11 01:06:11;;;;;;;44.33;20.77;;;;;;;0.15;91.44;100512.24;1792666;80;25118;-69
2021/01/11 01:08:38;;;;;;;54.00;20.20;;;;;;;0.14;91.64;100518.32;1792631;78;25209;-70
2021/01/11 01:11:05;;;;;;;52.53;19.70;;;;;;;0.09;91.69;100513.69;1792572;78;25071;-69
2021/01/11 01:13:32;;;;;;;58.10;19.97;;;;;;;0.03;91.94;100514.64;1792637;78;25628;-69
2021/01/11 01:16:01;;;;;;;60.10;19.63;;;;;;;-0.04;92.01;100517.78;1792692;78;25285;-69
2021/01/11 01:18:28;;;;;;;91.97;18.30;;;;;;;-0.09;92.50;100520.91;1792533;78;25625;-69
2021/01/11 01:20:54;;;;;;;46.63;16.93;;;;;;;-0.13;93.01;100524.45;1792715;80;25372;-69
2021/01/11 01:23:21;;;;;;;72.93;18.77;;;;;;;-0.23;92.62;100527.64;1792478;78;25217;-68
2021/01/11 01:25:48;;;;;;;62.37;17.30;;;;;;;-0.22;92.92;100524.61;1792590;80;25731;-69
2021/01/11 01:28:14;;;;;;;59.43;17.50;;;;;;;-0.19;93.33;100521.97;1792676;80;25047;-69
2021/01/11 01:30:41;;;;;;;53.93;17.53;;;;;;;-0.17;93.11;100518.06;1792508;79;25711;-69
2021/01/11 01:33:08;;;;;;;57.27;16.80;;;;;;;-0.11;93.55;100521.84;1792599;78;25205;-69
2021/01/11 01:35:34;;;;;;;57.97;16.30;;;;;;;-0.12;93.47;100522.70;1792580;78;25151;-69
2021/01/11 01:38:01;;;;;;;37.13;16.97;;;;;;;-0.10;93.63;100526.98;1792530;78;25689;-69
2021/01/11 01:40:28;;;;;;;28.90;15.37;;;;;;;-0.09;93.55;100523.94;1793692;79;25347;-68
2021/01/11 01:42:55;;;;;;;26.80;16.63;;;;;;;-0.04;93.82;100514.36;1795852;79;25252;-68
2021/01/11 01:45:21;;;;;;;30.73;17.87;;;;;;;-0.04;93.82;100514.36;1795672;79;25261;-69
2021/01/11 01:47:48;;;;;;;27.13;17.53;;;;;;;0.02;93.91;100515.54;1795577;78;25124;-68
2021/01/11 01:50:15;;;;;;;26.80;17.73;;;;;;;0.07;93.89;100520.17;1795607;78;25151;-68
2021/01/11 01:52:43;;;;;;;28.03;18.90;;;;;;;0.13;93.94;100525.20;1768819;79;25704;-69
2021/01/11 01:55:11;;;;;;;26.60;17.83;;;;;;;0.21;94.05;100519.89;1795845;78;25814;-68
2021/01/11 01:57:38;;;;;;;26.43;18.30;;;;;;;0.22;93.94;100520.73;1795751;79;25206;-69
2021/01/11 02:00:09;;;;;;;23.90;16.40;;;;;;;0.26;93.88;100519.80;1795685;78;25811;-69
2021/01/11 02:02:39;;;;;;;34.13;21.50;;;;;;;0.28;93.82;100518.87;1795744;79;25138;-68
2021/01/11 02:05:07;;;;;;;33.30;21.73;;;;;;;0.29;93.81;100526.21;1769239;79;25486;-69
2021/01/11 02:08:04;;;;;;;29.57;20.43;;;;;;;0.28;93.83;100524.05;1795839;78;25115;-68
2021/01/11 02:11:09;;;;;;;28.90;19.80;;;;;;;0.30;93.93;100522.30;1775622;78;25174;-68
2021/01/11 02:14:18;;;;;;;23.43;16.87;;;;;;;0.28;93.66;100530.52;1795897;79;25103;-69
2021/01/11 02:17:02;;;;;;;23.40;17.50;;;;;;;0.29;93.69;100522.33;1795884;78;25059;-68
2021/01/11 02:20:12;;;;;;;24.13;16.87;;;;;;;0.30;93.67;100523.59;1794991;78;25051;-68
2021/01/11 02:22:54;;;;;;;26.80;17.63;;;;;;;0.35;93.60;100520.47;1746692;79;25601;-69
2021/01/11 02:26:01;;;;;;;25.90;17.80;;;;;;;0.32;93.44;100511.47;1795823;78;25155;-69
2021/01/11 02:28:58;;;;;;;24.37;15.97;;;;;;;0.33;93.25;100510.56;1795852;78;25327;-69
2021/01/11 02:31:25;;;;;;;26.00;17.30;;;;;;;0.34;93.07;100513.58;1795803;79;25237;-68
2021/01/11 02:33:53;;;;;;;18.60;13.40;;;;;;;0.36;92.68;100507.08;1795827;78;25150;-68
2021/01/11 02:36:21;;;;;;;21.17;14.30;;;;;;;0.33;92.36;100511.86;1769021;79;25187;-69
2021/01/11 02:38:49;;;;;;;20.30;14.57;;;;;;;0.30;92.12;100508.06;1795872;78;25325;-68
2021/01/11 02:41:16;;;;;;;20.80;14.00;;;;;;;0.31;92.08;100505.88;1790447;79;25635;-68
2021/01/11 02:43:43;;;;;;;19.47;14.10;;;;;;;0.32;91.76;100504.16;1786872;80;25281;-67
2021/01/11 02:46:10;;;;;;;20.23;13.43;;;;;;;0.31;91.82;100496.81;1786872;79;25166;-68
2021/01/11 02:48:54;;;;;;;20.67;14.50;;;;;;;0.34;91.70;100500.64;1786951;80;25294;-68
2021/01/11 02:51:31;;;;;;;22.93;15.60;;;;;;;0.38;91.53;100495.40;1786807;78;25163;-68
2021/01/11 02:54:17;;;;;;;23.23;15.17;;;;;;;0.36;90.93;100486.38;1786790;79;25404;-68
2021/01/11 02:57:23;;;;;;;20.20;14.10;;;;;;;0.34;90.50;100490.28;1786851;80;25246;-68
2021/01/11 02:59:52;;;;;;;21.40;13.40;;;;;;;0.28;90.21;100489.56;1786956;80;25164;-68
2021/01/11 03:02:19;;;;;;;20.57;14.37;;;;;;;0.26;90.40;100484.87;1756917;80;25187;-67
2021/01/11 03:04:46;;;;;;;22.67;14.80;;;;;;;0.27;90.39;100482.67;1786930;80;25218;-67
2021/01/11 03:07:13;;;;;;;21.70;14.77;;;;;;;0.26;90.31;100480.99;1786787;79;25569;-67
2021/01/11 03:09:43;;;;;;;21.27;14.53;;;;;;;0.24;90.35;100481.02;1786937;79;25305;-68
2021/01/11 03:12:10;;;;;;;22.63;14.90;;;;;;;0.23;90.30;100485.77;1787169;80;25324;-68
2021/01/11 03:14:38;;;;;;;21.67;14.83;;;;;;;0.18;90.23;100478.13;1756829;79;25301;-68
2021/01/11 03:17:06;;;;;;;19.90;13.67;;;;;;;0.21;89.96;100473.32;1786934;79;25597;-68
2021/01/11 03:19:36;;;;;;;21.47;15.40;;;;;;;0.13;89.96;100479.09;1756791;80;25214;-67
2021/01/11 03:22:05;;;;;;;23.30;16.40;;;;;;;0.09;89.86;100470.55;1787012;79;25277;-68
2021/01/11 03:24:32;;;;;;;23.73;17.00;;;;;;;0.04;89.91;100471.54;1756669;80;25677;-68
2021/01/11 03:27:00;;;;;;;22.00;16.07;;;;;;;0.03;90.00;100465.49;1756735;79;25205;-68
2021/01/11 03:29:28;;;;;;;22.47;15.10;;;;;;;0.06;90.07;100464.59;1787257;80;25222;-68
2021/01/11 03:31:56;;;;;;;22.47;14.73;;;;;;;0.08;90.14;100468.84;1756789;80;25257;-68
2021/01/11 03:34:23;;;;;;;20.43;14.53;;;;;;;0.12;90.18;100465.77;1786919;80;25312;-68
2021/01/11 03:36:50;;;;;;;25.00;16.20;;;;;;;0.17;90.25;100462.19;1786902;79;25223;-69
2021/01/11 03:39:17;;;;;;;23.43;15.40;;;;;;;0.25;90.26;100463.33;1786875;80;25498;-68
2021/01/11 03:41:46;;;;;;;22.67;14.73;;;;;;;0.29;90.15;100455.89;1787049;79;25126;-68
2021/01/11 03:44:13;;;;;;;22.47;15.97;;;;;;;0.33;90.16;100461.40;1786757;80;25628;-68
2021/01/11 03:46:40;;;;;;;21.80;16.37;;;;;;;0.36;90.07;100452.27;1786925;80;25309;-69
2021/01/11 03:49:06;;;;;;;23.63;17.23;;;;;;;0.44;90.05;100451.27;1786902;79;25127;-68
2021/01/11 03:51:33;;;;;;;28.83;19.47;;;;;;;0.47;89.88;100446.00;1786732;79;25619;-70
2021/01/11 03:54:00;;;;;;;21.33;15.83;;;;;;;0.44;89.60;100444.35;1786767;80;25364;-68
2021/01/11 03:56:27;;;;;;;27.00;18.43;;;;;;;0.46;89.54;100447.75;1786719;80;25206;-68
2021/01/11 03:58:53;;;;;;;26.83;17.10;;;;;;;0.48;89.49;100441.25;1786913;80;25209;-68
2021/01/11 04:01:20;;;;;;;23.13;15.47;;;;;;;0.49;89.38;100433.45;1786804;80;25744;-68
2021/01/11 04:03:48;;;;;;;21.90;16.03;;;;;;;0.51;89.18;100434.70;1786851;79;25257;-68
2021/01/11 04:06:22;;;;;;;21.90;15.37;;;;;;;0.51;89.14;100430.83;1756180;80;25328;-68
2021/01/11 04:08:48;;;;;;;24.50;16.70;;;;;;;0.48;89.01;100433.03;1786486;79;25147;-68
2021/01/11 04:11:19;;;;;;;23.37;16.10;;;;;;;0.48;89.01;100431.73;1786735;79;25187;-68
2021/01/11 04:13:47;;;;;;;22.80;15.93;;;;;;;0.44;88.85;100429.27;1786867;79;25212;-68
2021/01/11 04:16:35;;;;;;;24.67;16.10;;;;;;;0.31;88.62;100430.83;1786836;80;25142;-68
2021/01/11 04:19:02;;;;;;;23.07;16.27;;;;;;;0.17;88.52;100424.67;1760075;80;25088;-68
2021/01/11 04:21:29;;;;;;;24.80;16.57;;;;;;;0.03;88.54;100418.09;1759987;81;25151;-69
2021/01/11 04:23:56;;;;;;;23.77;16.53;;;;;;;-0.08;88.61;100419.63;1760178;81;25557;-68
2021/01/11 04:26:22;;;;;;;22.97;16.70;;;;;;;-0.17;88.73;100415.93;1760095;81;25583;-68
2021/01/11 04:28:49;;;;;;;24.23;16.77;;;;;;;-0.22;88.92;100416.02;1759990;80;25199;-69
2021/01/11 04:31:17;;;;;;;22.33;16.20;;;;;;;-0.26;88.96;100415.23;1759898;80;25644;-68
2021/01/11 04:33:44;;;;;;;25.73;18.17;;;;;;;-0.33;89.00;100411.53;1759962;80;25108;-68
2021/01/11 04:36:10;;;;;;;27.30;17.97;;;;;;;-0.36;89.07;100411.58;1760007;81;25652;-69
2021/01/11 04:38:37;;;;;;;24.27;17.50;;;;;;;-0.42;89.14;100413.41;1760021;80;25285;-69
2021/01/11 04:41:04;;;;;;;24.30;17.20;;;;;;;-0.44;89.08;100415.59;1760046;80;25203;-68
2021/01/11 04:43:35;;;;;;;25.83;18.43;;;;;;;-0.53;89.02;100399.84;1808164;77;25064;-69
2021/01/11 04:46:02;;;;;;;25.43;17.93;;;;;;;-0.59;89.08;100407.28;1840575;77;25361;-69
2021/01/11 04:48:31;;;;;;;27.30;18.17;;;;;;;-0.60;89.22;100404.27;1840641;77;25276;-68
2021/01/11 04:50:58;;;;;;;26.73;18.47;;;;;;;-0.60;89.28;100406.02;1822635;77;25071;-69
2021/01/11 04:53:26;;;;;;;30.77;20.50;;;;;;;-0.66;89.27;100397.92;1807697;78;25146;-68
2021/01/11 04:55:54;;;;;;;28.50;19.63;;;;;;;-0.68;89.39;100402.73;1807571;78;25470;-69
2021/01/11 04:58:21;;;;;;;27.20;18.77;;;;;;;-0.69;89.47;100403.14;1807514;79;25170;-68
2021/01/11 05:00:48;;;;;;;29.93;19.43;;;;;;;-0.73;89.50;100398.93;1807637;78;25135;-68
2021/01/11 05:03:15;;;;;;;29.83;19.77;;;;;;;-0.76;89.58;100402.41;1807471;79;25297;-68
2021/01/11 05:05:45;;;;;;;30.63;19.97;;;;;;;-0.84;89.65;100405.60;1807703;78;25194;-68
2021/01/11 05:08:12;;;;;;;30.50;19.63;;;;;;;-0.88;89.75;100409.10;1807560;79;25190;-68
2021/01/11 05:10:40;;;;;;;29.53;20.07;;;;;;;-0.92;89.86;100406.59;1807592;79;25700;-68
2021/01/11 05:13:08;;;;;;;28.70;19.57;;;;;;;-0.96;89.88;100398.05;1807517;78;25616;-68
2021/01/11 05:15:37;;;;;;;31.50;21.63;;;;;;;-0.99;89.89;100401.56;1807624;79;25454;-68
2021/01/11 05:18:19;;;;;;;32.13;21.33;;;;;;;-1.03;89.89;100394.73;1807546;78;25589;-68
2021/01/11 05:20:47;;;;;;;30.10;21.60;;;;;;;-1.03;90.02;100393.89;1807666;78;25735;-68
2021/01/11 05:23:15;;;;;;;33.37;22.07;;;;;;;-1.08;90.01;100392.67;1807497;79;25668;-68
2021/01/11 05:25:44;;;;;;;33.40;22.43;;;;;;;-1.09;90.01;100396.56;1807611;78;25498;-68
2021/01/11 05:28:18;;;;;;;31.03;21.67;;;;;;;-1.15;90.16;100390.63;1807560;79;25522;-68
2021/01/11 05:30:47;;;;;;;31.97;20.47;;;;;;;-1.21;90.36;100395.89;1807574;79;25228;-67
2021/01/11 05:33:19;;;;;;;34.33;21.90;;;;;;;-1.26;90.53;100394.27;1807559;78;25495;-68
2021/01/11 05:35:47;;;;;;;33.53;20.27;;;;;;;-1.32;90.82;100388.34;1807418;79;25087;-68
2021/01/11 05:38:19;;;;;;;29.43;19.70;;;;;;;-1.33;91.45;100395.66;1807599;78;25328;-67
2021/01/11 05:40:46;;;;;;;33.47;21.30;;;;;;;-1.35;91.65;100395.28;1807660;78;25127;-68
2021/01/11 05:43:19;;;;;;;34.30;20.97;;;;;;;-1.34;91.55;100400.42;1807592;78;25190;-68
2021/01/11 05:45:46;;;;;;;36.77;21.47;;;;;;;-1.29;91.69;100405.52;1807631;78;25617;-68
2021/01/11 05:48:13;;;;;;;55.27;21.83;;;;;;;-1.25;91.82;100410.19;1807555;79;25202;-68
2021/01/11 05:50:49;;;;;;;52.80;21.83;;;;;;;-1.19;92.10;100407.06;1807466;78;25653;-68
2021/01/11 05:53:21;;;;;;;56.67;23.10;;;;;;;-1.17;92.11;100405.75;1807075;79;25068;-67
2021/01/11 05:55:49;;;;;;;45.50;20.37;;;;;;;-1.17;92.44;100403.16;1807700;78;25127;-68
2021/01/11 05:58:19;;;;;;;51.47;20.90;;;;;;;-1.24;92.34;100398.55;1807601;78;25772;-68
2021/01/11 06:00:45;;;;;;;69.90;20.87;;;;;;;-1.24;92.58;100402.42;1807532;79;25494;-67
2021/01/11 06:03:13;;;;;;;40.63;20.00;;;;;;;-1.23;92.72;100406.68;1807723;78;25052;-67
2021/01/11 06:05:40;;;;;;;53.20;20.30;;;;;;;-1.25;92.56;100408.44;1807640;79;25206;-67
2021/01/11 06:08:11;;;;;;;47.57;20.67;;;;;;;-1.24;92.72;100408.00;1807622;79;25672;-68
2021/01/11 06:10:38;;;;;;;55.93;23.83;;;;;;;-1.22;92.64;100413.56;1806795;78;25166;-67
2021/01/11 06:13:10;;;;;;;64.03;25.80;;;;;;;-1.17;92.78;100416.08;1807590;79;25127;-69
2021/01/11 06:15:42;;;;;;;59.53;26.37;;;;;;;-1.16;92.89;100416.47;1807585;79;25207;-68
2021/01/11 06:18:10;;;;;;;52.63;25.33;;;;;;;-1.16;92.80;100411.30;1803038;78;25071;-68
2021/01/11 06:20:43;;;;;;;54.43;20.27;;;;;;;-1.15;93.05;100415.60;1797477;78;25201;-69
2021/01/11 06:23:13;;;;;;;41.40;18.60;;;;;;;-1.16;93.13;100418.63;1797305;78;25486;-68
2021/01/11 06:25:43;;;;;;;61.50;19.43;;;;;;;-1.21;92.94;100418.28;1794041;78;25078;-68
2021/01/11 06:28:10;;;;;;;47.67;18.90;;;;;;;-1.22;93.26;100419.17;1797354;78;25321;-68
2021/01/11 06:30:39;;;;;;;38.93;17.40;;;;;;;-1.31;93.19;100433.05;1797362;78;25206;-68
2021/01/11 06:33:19;;;;;;;28.93;16.53;;;;;;;-1.39;93.20;100425.87;1797498;78;25414;-69
2021/01/11 06:35:48;;;;;;;30.43;18.70;;;;;;;-1.50;93.14;100428.62;1796491;78;25079;-69
2021/01/11 06:38:20;;;;;;;36.63;17.13;;;;;;;-1.53;92.98;100426.93;1797261;78;25222;-68
2021/01/11 06:41:24;;;;;;;43.43;18.03;;;;;;;-1.51;93.24;100428.20;1797463;78;25229;-69
2021/01/11 06:43:52;;;;;;;37.63;15.70;;;;;;;-1.56;93.28;100425.72;1756670;80;25076;-68
2021/01/11 06:46:39;;;;;;;33.43;16.30;;;;;;;-1.62;93.28;100427.09;1763818;80;25490;-70
2021/01/11 06:49:04;;;;;;;33.83;16.47;;;;;;;-1.72;93.06;100425.52;1763281;80;25791;-67
2021/01/11 06:51:43;;;;;;;34.73;15.70;;;;;;;-1.79;93.18;100421.30;1763749;80;25321;-69
2021/01/11 06:54:16;;;;;;;30.93;16.13;;;;;;;-1.82;93.00;100413.63;1763838;80;25214;-68
2021/01/11 06:56:43;;;;;;;44.40;16.87;;;;;;;-1.83;93.17;100417.07;1763873;80;25075;-68
2021/01/11 07:01:51;;;;;;;36.13;18.00;;;;;;;-1.83;93.46;100417.91;1818334;78;27466;-69
2021/01/11 07:04:36;;;;;;;48.47;19.13;;;;;;;-1.92;93.40;100421.48;1789496;80;25193;-68
2021/01/11 07:07:03;;;;;;;48.70;20.97;;;;;;;-1.95;93.45;100420.22;1789404;79;25731;-69
2021/01/11 07:09:30;;;;;;;53.07;25.20;;;;;;;-1.97;93.50;100428.88;1789357;80;25281;-68
2021/01/11 07:12:04;;;;;;;56.03;25.47;;;;;;;-1.96;93.74;100426.69;1789465;80;25328;-68
2021/01/11 07:15:06;;;;;;;65.97;25.80;;;;;;;-1.95;93.53;100429.70;1789500;79;25359;-68
2021/01/11 07:17:42;;;;;;;71.93;26.83;;;;;;;-1.96;93.62;100432.72;1789591;80;25756;-68
2021/01/11 07:20:13;;;;;;;62.10;29.60;;;;;;;-1.97;93.54;100429.72;1789540;79;25324;-68
2021/01/11 07:22:41;;;;;;;57.67;25.33;;;;;;;-2.00;93.38;100432.33;1789418;79;25273;-68
2021/01/11 07:25:19;;;;;;;52.30;24.33;;;;;;;-2.00;93.57;100431.03;1789562;79;25584;-69
2021/01/11 07:27:46;;;;;;;38.60;21.03;;;;;;;-1.99;93.34;100429.34;1789414;80;25680;-69
2021/01/11 07:30:13;;;;;;;43.10;24.43;;;;;;;-1.97;93.53;100434.03;1750603;80;25162;-69
2021/01/11 07:32:40;;;;;;;31.63;17.73;;;;;;;-1.97;93.66;100425.84;1789398;79;25331;-68
2021/01/11 07:35:08;;;;;;;31.30;16.87;;;;;;;-1.98;93.75;100429.28;1789467;80;25316;-68
2021/01/11 07:37:35;;;;;;;27.17;16.63;;;;;;;-1.93;93.70;100427.53;1789472;79;25290;-69
2021/01/11 07:40:07;;;;;;;37.17;17.43;;;;;;;-1.88;93.89;100427.44;1789496;79;25292;-69
2021/01/11 07:42:35;;;;;;;24.77;15.07;;;;;;;-1.86;93.93;100424.39;1789424;80;25309;-69
2021/01/11 07:45:10;;;;;;;29.23;15.37;;;;;;;-1.85;93.80;100425.27;1789533;80;25736;-68
2021/01/11 07:47:38;;;;;;;26.53;15.00;;;;;;;-1.87;93.87;100425.29;1789445;79;25285;-69
2021/01/11 07:50:07;;;;;;;31.23;16.97;;;;;;;-1.80;93.90;100428.19;1780715;79;25715;-69
2021/01/11 07:52:33;;;;;;;26.63;16.87;;;;;;;-1.76;93.96;100428.58;1784199;79;25166;-69
2021/01/11 07:55:03;;;;;;;36.30;18.83;;;;;;;-1.71;93.84;100431.07;1784038;80;25767;-70
2021/01/11 07:57:32;;;;;;;39.60;19.50;;;;;;;-1.61;93.99;100426.64;1784155;79;25380;-69
2021/01/11 08:00:08;;;;;;;38.40;18.80;;;;;;;-1.46;94.11;100436.72;1784046;80;25289;-68
2021/01/11 08:02:46;;;;;;;40.30;20.50;;;;;;;-1.36;93.98;100437.44;1784008;79;25217;-69
2021/01/11 08:05:21;;;;;;;34.50;20.47;;;;;;;-1.29;93.85;100442.06;1784119;79;25325;-68
2021/01/11 08:08:04;;;;;;;47.97;20.77;;;;;;;-1.22;93.69;100439.38;1784106;79;25709;-69
2021/01/11 08:10:34;;;;;;;55.17;19.63;;;;;;;-1.13;93.67;100444.37;1783861;80;25249;-69
2021/01/11 08:13:06;;;;;;;41.67;24.60;;;;;;;-1.10;93.40;100446.52;1783373;79;25736;-68
2021/01/11 08:15:34;;;;;;;38.57;19.77;;;;;;;-1.10;93.26;100455.55;1783496;79;25422;-68
2021/01/11 08:18:04;;;;;;;34.97;20.30;;;;;;;-1.10;92.80;100449.94;1757369;80;25334;-68
2021/01/11 08:20:31;;;;;;;41.03;19.63;;;;;;;-1.12;92.75;100459.00;1783514;80;25265;-69
2021/01/11 08:23:08;;;;;;;32.07;19.13;;;;;;;-1.07;92.60;100457.64;1783559;79;25338;-69
2021/01/11 08:25:36;;;;;;;30.93;20.07;;;;;;;-1.16;92.17;100455.19;1783554;79;25823;-69
2021/01/11 08:28:03;;;;;;;36.33;21.27;;;;;;;-1.23;92.33;100463.92;1783526;79;25301;-68
2021/01/11 08:30:30;;;;;;;32.43;19.80;;;;;;;-1.17;92.26;100458.67;1783589;79;25320;-69
2021/01/11 08:32:58;;;;;;;32.53;21.43;;;;;;;-1.22;92.21;100461.77;1783503;79;25693;-69
2021/01/11 08:35:25;;;;;;;46.67;30.63;;;;;;;-1.22;92.19;100466.92;1783660;80;25324;-68
2021/01/11 08:38:00;;;;;;;45.40;27.60;;;;;;;-1.16;92.25;100472.84;1783217;80;25700;-69
2021/01/11 08:40:32;;;;;;;44.20;26.30;;;;;;;-1.07;92.31;100465.38;1783570;80;25287;-69
2021/01/11 08:45:53;;;;;;;34.70;23.07;;;;;;;-0.78;91.14;100453.25;1817131;77;26925;-67
2021/01/11 08:48:26;;;;;;;31.27;20.97;;;;;;;-1.00;90.39;100461.81;1788346;79;25392;-69
2021/01/11 08:50:57;;;;;;;39.17;25.87;;;;;;;-1.03;90.31;100464.89;1772375;80;25722;-67
2021/01/11 08:53:28;;;;;;;35.67;21.97;;;;;;;-1.13;90.19;100467.61;1727915;80;25314;-68
2021/01/11 08:56:06;;;;;;;37.17;23.30;;;;;;;-1.12;90.39;100462.87;1757165;80;25377;-69
2021/01/11 08:58:42;;;;;;;43.23;25.17;;;;;;;-1.08;90.30;100469.28;1757357;80;25262;-69
2021/01/11 09:01:17;;;;;;;49.07;28.90;;;;;;;-1.06;90.60;100466.23;1756662;80;25645;-69
2021/01/11 09:06:46;;;;;;;35.77;21.47;;;;;;;-0.91;90.64;100456.92;1849871;76;26835;-70
2021/01/11 09:09:17;;;;;;;30.13;19.50;;;;;;;-0.86;90.21;100462.02;1819860;77;25227;-68
2021/01/11 09:11:48;;;;;;;33.30;21.03;;;;;;;-0.94;89.79;100464.72;1819898;77;25335;-68
2021/01/11 09:14:17;;;;;;;31.53;20.80;;;;;;;-0.92;89.85;100461.70;1819857;77;25206;-68
2021/01/11 09:16:48;;;;;;;27.17;18.43;;;;;;;-0.97;89.60;100464.80;1819842;77;25693;-68
2021/01/11 09:19:19;;;;;;;30.03;18.97;;;;;;;-1.04;89.77;100470.50;1819732;78;25263;-68
2021/01/11 09:22:16;;;;;;;28.77;18.47;;;;;;;-0.99;89.93;100467.82;1819828;77;25219;-68
2021/01/11 09:24:44;;;;;;;29.53;20.07;;;;;;;-0.97;89.73;100466.09;1819891;77;25202;-68
2021/01/11 09:27:13;;;;;;;27.50;19.17;;;;;;;-0.99;89.42;100454.50;1788678;78;25200;-69
2021/01/11 09:29:40;;;;;;;29.63;19.50;;;;;;;-0.96;89.51;100462.61;1819830;77;25180;-68
2021/01/11 09:32:07;;;;;;;30.13;21.33;;;;;;;-1.00;89.38;100451.94;1819697;78;25243;-68
2021/01/11 09:34:34;;;;;;;27.63;19.17;;;;;;;-0.97;89.55;100462.22;1819833;77;25259;-68
2021/01/11 09:37:02;;;;;;;28.43;19.13;;;;;;;-1.02;89.56;100453.66;1819756;78;25289;-69
2021/01/11 09:39:29;;;;;;;29.97;18.73;;;;;;;-0.92;89.86;100452.66;1819701;77;25626;-68
2021/01/11 09:41:57;;;;;;;29.13;18.80;;;;;;;-0.84;89.34;100448.22;1819648;77;25254;-68
2021/01/11 09:44:25;;;;;;;33.10;21.70;;;;;;;-0.84;89.32;100446.92;1819731;77;27111;-69
2021/01/11 09:46:54;;;;;;;36.27;22.47;;;;;;;-0.73;89.12;100439.42;1819757;77;25208;-68
2021/01/11 09:49:22;;;;;;;32.40;22.53;;;;;;;-0.78;89.07;100436.46;1819674;77;25650;-68
2021/01/11 09:51:49;;;;;;;34.90;22.63;;;;;;;-0.80;89.06;100440.81;1790770;78;25268;-68
2021/01/11 09:54:16;;;;;;;29.00;18.50;;;;;;;-0.74;89.23;100442.42;1787621;79;25194;-68
2021/01/11 09:56:42;;;;;;;27.17;18.50;;;;;;;-0.73;88.98;100436.84;1787534;79;25784;-69
2021/01/11 09:59:11;;;;;;;23.50;16.43;;;;;;;-0.78;89.20;100430.45;1787492;79;25270;-69
2021/01/11 10:01:48;;;;;;;27.60;19.80;;;;;;;-0.81;89.24;100437.80;1757178;80;25289;-68
2021/01/11 10:04:17;;;;;;;27.73;18.70;;;;;;;-0.79;89.51;100430.91;1787540;79;25614;-69
2021/01/11 10:06:50;;;;;;;25.63;17.40;;;;;;;-0.71;89.73;100433.78;1787408;78;25637;-68
2021/01/11 10:09:20;;;;;;;28.53;20.73;;;;;;;-0.64;89.71;100426.31;1786318;80;25210;-69
2021/01/11 10:11:49;;;;;;;25.67;17.90;;;;;;;-0.57;89.36;100420.14;1787479;79;25312;-68
2021/01/11 10:14:17;;;;;;;25.13;17.37;;;;;;;-0.57;89.61;100424.89;1787427;79;25115;-68
2021/01/11 10:16:45;;;;;;;24.80;15.77;;;;;;;-0.48;89.83;100423.86;1756797;80;25621;-69
2021/01/11 10:19:18;;;;;;;26.70;18.27;;;;;;;-0.42;89.82;100419.87;1787000;79;25666;-69
2021/01/11 10:21:45;;;;;;;23.27;16.30;;;;;;;-0.28;90.08;100431.22;1787061;80;25301;-69
2021/01/11 10:24:13;;;;;;;25.37;18.80;;;;;;;-0.09;90.18;100425.22;1787020;79;25716;-69
2021/01/11 10:26:44;;;;;;;27.27;19.87;;;;;;;0.06;89.86;100431.81;1756739;79;25205;-68
2021/01/11 10:29:15;;;;;;;25.17;17.07;;;;;;;0.24;89.23;100437.03;1786955;80;25312;-68
2021/01/11 10:31:42;;;;;;;27.90;19.33;;;;;;;0.24;87.91;100439.63;1786920;79;25345;-68
2021/01/11 10:34:12;;;;;;;26.60;17.97;;;;;;;0.22;87.87;100434.05;1786861;79;25304;-67
2021/01/11 10:36:50;;;;;;;26.70;19.07;;;;;;;0.20;88.08;100427.63;1786858;80;25688;-69
2021/01/11 10:39:22;;;;;;;31.07;21.20;;;;;;;0.20;87.88;100427.63;1786938;79;25269;-68
2021/01/11 10:41:55;;;;;;;37.23;27.40;;;;;;;0.17;88.02;100425.12;1786972;79;25285;-68
2021/01/11 10:44:27;;;;;;;27.50;18.23;;;;;;;0.21;88.37;100422.87;1756835;80;25752;-68
2021/01/11 10:46:55;;;;;;;27.43;18.43;;;;;;;0.27;88.34;100421.87;1786875;79;25237;-69
2021/01/11 10:49:21;;;;;;;38.47;29.23;;;;;;;0.37;88.56;100413.03;1786827;80;25265;-68
2021/01/11 10:51:49;;;;;;;32.33;22.67;;;;;;;0.47;88.03;100416.23;1786808;78;25296;-68
2021/01/11 10:54:16;;;;;;;33.33;22.70;;;;;;;0.46;87.81;100409.38;1786811;79;25700;-69
2021/01/11 10:56:42;;;;;;;34.47;23.67;;;;;;;0.49;87.90;100409.31;1786917;79;25127;-68
2021/01/11 10:59:10;;;;;;;35.27;23.13;;;;;;;0.55;87.56;100404.84;1787016;79;25301;-68
2021/01/11 11:01:37;;;;;;;30.67;21.53;;;;;;;0.60;87.64;100406.00;1786876;80;25142;-69
2021/01/11 11:04:05;;;;;;;26.97;18.67;;;;;;;0.65;86.93;100395.09;1786926;79;25301;-69
2021/01/11 11:06:32;;;;;;;26.13;18.77;;;;;;;0.66;86.60;100390.78;1786809;78;25300;-69
2021/01/11 11:08:59;;;;;;;29.97;20.37;;;;;;;0.61;85.37;100389.59;1787001;79;25198;-69
2021/01/11 11:11:25;;;;;;;29.87;19.87;;;;;;;0.50;85.39;100385.98;1786773;79;25673;-69
2021/01/11 11:13:52;;;;;;;26.27;19.30;;;;;;;0.36;85.68;100382.41;1787005;79;25201;-68
2021/01/11 11:16:20;;;;;;;27.73;19.57;;;;;;;0.31;86.33;100380.37;1786928;80;25206;-69
2021/01/11 11:18:46;;;;;;;29.53;20.00;;;;;;;0.33;86.56;100370.83;1786754;80;25289;-69
2021/01/11 11:21:13;;;;;;;28.07;19.90;;;;;;;0.31;86.68;100371.31;1786944;79;25242;-68
2021/01/11 11:23:40;;;;;;;30.47;20.33;;;;;;;0.31;87.08;100362.25;1786945;79;25265;-69
2021/01/11 11:26:09;;;;;;;33.83;23.20;;;;;;;0.39;87.24;100366.39;1786809;79;25796;-69
2021/01/11 11:28:36;;;;;;;35.70;22.70;;;;;;;0.47;87.55;100360.59;1786790;79;25328;-69
2021/01/11 11:31:04;;;;;;;33.50;22.67;;;;;;;0.60;87.72;100365.03;1786805;79;25337;-68
2021/01/11 11:33:36;;;;;;;36.60;24.53;;;;;;;0.68;86.96;100360.52;1786947;80;25389;-69
2021/01/11 11:36:04;;;;;;;36.73;23.97;;;;;;;0.68;86.83;100354.88;1786766;80;25261;-70